createdAt,value
2019-02-05T00:00:45.384Z,12.20
2019-02-05T00:03:16.598Z,9.87
2019-02-05T00:05:46.253Z,10.60
2019-02-05T00:08:15.923Z,11.13
2019-02-05T00:10:45.587Z,10.43
2019-02-05T00:13:15.652Z,10.83
2019-02-05T00:15:45.299Z,10.47
2019-02-05T00:18:14.897Z,10.33
2019-02-05T00:20:44.516Z,10.30
2019-02-05T00:23:14.145Z,10.63
2019-02-05T00:25:43.734Z,12.33
2019-02-05T00:28:13.612Z,9.60
2019-02-05T00:30:43.230Z,10.43
2019-02-05T00:33:12.826Z,9.40
2019-02-05T00:35:42.503Z,9.27
2019-02-05T00:38:12.099Z,9.67
2019-02-05T00:40:41.720Z,11.33
2019-02-05T00:43:12.374Z,9.77
2019-02-05T00:45:42.045Z,9.70
2019-02-05T00:48:11.709Z,10.50
2019-02-05T00:50:41.367Z,9.23
2019-02-05T00:53:11.079Z,9.20
2019-02-05T00:55:41.100Z,9.63
2019-02-05T00:58:10.730Z,10.27
2019-02-05T01:00:40.439Z,10.33
2019-02-05T01:03:10.053Z,8.53
2019-02-05T01:05:39.675Z,8.90
2019-02-05T01:08:09.382Z,9.77
2019-02-05T01:10:39.283Z,9.90
2019-02-05T01:13:08.969Z,8.63
2019-02-05T01:15:38.531Z,9.00
2019-02-05T01:18:08.132Z,9.57
2019-02-05T01:20:37.715Z,8.97
2019-02-05T01:23:07.391Z,7.97
2019-02-05T01:25:36.999Z,9.23
2019-02-05T01:28:06.632Z,9.70
2019-02-05T01:30:36.371Z,8.90
2019-02-05T01:33:06.119Z,8.57
2019-02-05T01:35:35.757Z,7.33
2019-02-05T01:38:05.464Z,9.67
2019-02-05T01:40:35.134Z,8.40
2019-02-05T01:43:04.819Z,8.23
2019-02-05T01:45:35.496Z,6.87
2019-02-05T01:48:05.078Z,8.17
2019-02-05T01:50:34.675Z,11.00
2019-02-05T01:53:04.675Z,9.30
2019-02-05T01:55:34.310Z,9.77
2019-02-05T01:58:04.139Z,8.57
2019-02-05T02:00:35.692Z,10.67
2019-02-05T02:03:06.463Z,10.40
2019-02-05T02:05:36.264Z,7.57
2019-02-05T02:08:05.965Z,12.43
2019-02-05T02:10:35.568Z,8.83
2019-02-05T02:13:05.254Z,16.03
2019-02-05T02:15:34.827Z,10.33
2019-02-05T02:18:04.505Z,8.87
2019-02-05T02:20:34.087Z,6.07
2019-02-05T02:23:05.487Z,8.87
2019-02-05T02:25:35.158Z,6.50
2019-02-05T02:28:04.944Z,7.80
2019-02-05T02:30:38.206Z,8.87
2019-02-05T02:33:07.841Z,8.90
2019-02-05T02:35:37.924Z,8.80
2019-02-05T02:38:07.627Z,7.87
2019-02-05T02:40:37.139Z,8.10
2019-02-05T02:43:06.840Z,7.80
2019-02-05T02:45:36.562Z,9.73
2019-02-05T02:48:06.197Z,8.60
2019-02-05T02:50:35.811Z,8.47
2019-02-05T02:53:05.525Z,6.00
2019-02-05T02:55:35.118Z,8.67
2019-02-05T02:58:04.862Z,7.93
2019-02-05T03:00:34.498Z,8.20
2019-02-05T03:03:04.291Z,7.77
2019-02-05T03:05:33.867Z,9.40
2019-02-05T03:08:03.606Z,8.40
2019-02-05T03:10:33.339Z,7.37
2019-02-05T03:13:03.000Z,7.90
2019-02-05T03:15:32.605Z,7.13
2019-02-05T03:18:02.208Z,7.33
2019-02-05T03:20:32.261Z,7.93
2019-02-05T03:23:01.844Z,8.87
2019-02-05T03:25:31.492Z,8.60
2019-02-05T03:28:01.106Z,8.30
2019-02-05T03:30:30.679Z,6.17
2019-02-05T03:33:00.353Z,7.57
2019-02-05T03:35:29.952Z,6.67
2019-02-05T03:37:59.880Z,6.50
2019-02-05T03:40:32.386Z,7.97
2019-02-05T03:43:02.095Z,6.53
2019-02-05T03:45:33.554Z,7.77
2019-02-05T03:48:04.740Z,7.00
2019-02-05T03:50:37.265Z,7.13
2019-02-05T03:53:10.134Z,7.23
2019-02-05T03:55:42.652Z,8.63
2019-02-05T03:58:27.315Z,7.53
2019-02-05T04:01:14.928Z,6.47
2019-02-05T04:03:50.288Z,7.07
2019-02-05T04:06:22.997Z,6.27
2019-02-05T04:09:01.639Z,7.40
2019-02-05T04:11:55.534Z,6.40
2019-02-05T04:14:57.777Z,6.07
2019-02-05T04:17:35.844Z,6.43
2019-02-05T04:20:34.252Z,4.87
2019-02-05T04:23:23.363Z,6.37
2019-02-05T04:25:55.901Z,6.03
2019-02-05T04:28:51.133Z,6.90
2019-02-05T04:31:26.716Z,7.23
2019-02-05T04:34:14.356Z,6.20
2019-02-05T04:36:53.026Z,6.40
2019-02-05T04:39:28.307Z,6.60
2019-02-05T04:42:12.737Z,6.63
2019-02-05T04:44:51.173Z,6.10
2019-02-05T04:47:26.480Z,6.10
2019-02-05T04:50:31.848Z,6.00
2019-02-05T04:53:07.279Z,7.47
2019-02-05T04:55:51.903Z,7.20
2019-02-05T04:58:30.289Z,5.80
2019-02-05T05:01:14.887Z,7.57
2019-02-05T05:03:56.400Z,6.13
2019-02-05T05:06:45.427Z,7.10
2019-02-05T05:09:26.633Z,6.03
2019-02-05T05:11:56.285Z,6.37
2019-02-05T05:14:25.895Z,6.63
2019-02-05T05:16:55.506Z,6.43
2019-02-05T05:19:25.323Z,6.63
2019-02-05T05:21:55.174Z,7.33
2019-02-05T05:24:25.003Z,6.60
2019-02-05T05:26:54.747Z,7.40
2019-02-05T05:29:24.621Z,7.93
2019-02-05T05:31:54.315Z,8.73
2019-02-05T05:34:24.222Z,9.17
2019-02-05T05:36:52.658Z,7.83
2019-02-05T05:39:23.371Z,8.90
2019-02-05T05:41:53.025Z,7.60
2019-02-05T05:44:22.698Z,8.27
2019-02-05T05:46:52.289Z,9.30
2019-02-05T05:49:22.250Z,8.40
2019-02-05T05:51:51.837Z,6.53
2019-02-05T05:54:21.452Z,8.50
2019-02-05T05:56:51.091Z,8.27
2019-02-05T05:59:20.753Z,10.20
2019-02-05T06:01:50.445Z,8.30
2019-02-05T06:04:20.096Z,10.80
2019-02-05T06:06:49.882Z,9.03
2019-02-05T06:09:19.495Z,8.80
2019-02-05T06:11:49.093Z,7.50
2019-02-05T06:14:18.705Z,9.33
2019-02-05T06:16:48.371Z,8.60
2019-02-05T06:19:17.943Z,9.63
2019-02-05T06:21:47.640Z,10.10
2019-02-05T06:24:17.359Z,8.77
2019-02-05T06:26:47.002Z,9.83
2019-02-05T06:29:16.665Z,11.07
2019-02-05T06:31:46.436Z,9.87
2019-02-05T06:34:16.085Z,12.10
2019-02-05T06:36:46.165Z,8.80
2019-02-05T06:39:15.842Z,10.43
2019-02-05T06:41:45.443Z,9.67
2019-02-05T06:44:15.103Z,9.70
2019-02-05T06:46:44.703Z,11.17
2019-02-05T06:49:14.349Z,9.40
2019-02-05T06:51:44.437Z,10.17
2019-02-05T06:54:14.044Z,9.70
2019-02-05T06:56:43.661Z,11.00
2019-02-05T06:59:13.259Z,10.43
2019-02-05T07:01:42.974Z,11.73
2019-02-05T07:04:12.661Z,11.23
2019-02-05T07:06:42.612Z,9.43
2019-02-05T07:09:12.238Z,11.97
2019-02-05T07:11:41.894Z,11.17
2019-02-05T07:14:11.563Z,11.47
2019-02-05T07:16:41.171Z,10.20
2019-02-05T07:19:10.862Z,9.63
2019-02-05T07:21:40.457Z,11.47
2019-02-05T07:24:10.104Z,11.80
2019-02-05T07:26:39.752Z,11.77
2019-02-05T07:29:09.333Z,12.37
2019-02-05T07:31:39.009Z,9.97
2019-02-05T07:34:08.710Z,13.53
2019-02-05T07:36:38.446Z,11.00
2019-02-05T07:39:08.935Z,11.30
2019-02-05T07:41:38.529Z,11.43
2019-02-05T07:44:08.233Z,12.47
2019-02-05T07:46:37.904Z,12.60
2019-02-05T07:49:07.571Z,11.73
2019-02-05T07:51:37.179Z,13.30
2019-02-05T07:54:06.771Z,12.00
2019-02-05T07:56:36.709Z,13.57
2019-02-05T07:59:10.360Z,12.77
2019-02-05T08:01:37.565Z,12.37
2019-02-05T08:04:07.160Z,12.27
2019-02-05T08:06:36.794Z,12.03
2019-02-05T08:09:08.674Z,11.90
2019-02-05T08:11:41.214Z,12.30
2019-02-05T08:14:10.144Z,13.43
2019-02-05T08:16:39.844Z,11.67
2019-02-05T08:19:09.457Z,15.67
2019-02-05T08:21:39.158Z,14.63
2019-02-05T08:24:08.795Z,12.30
2019-02-05T08:26:38.430Z,9.87
2019-02-05T08:29:08.266Z,12.73
2019-02-05T08:31:37.937Z,14.03
2019-02-05T08:34:07.514Z,12.43
2019-02-05T08:36:37.231Z,13.47
2019-02-05T08:39:08.414Z,11.23
2019-02-05T08:41:38.189Z,11.83
2019-02-05T08:44:07.775Z,10.20
2019-02-05T08:46:37.398Z,11.40
2019-02-05T08:49:07.000Z,12.37
2019-02-05T08:51:36.594Z,11.33
2019-02-05T08:54:06.241Z,10.90
2019-02-05T08:56:35.909Z,13.40
2019-02-05T08:59:05.890Z,14.27
2019-02-05T09:01:36.769Z,11.10
2019-02-05T09:04:06.532Z,10.37
2019-02-05T09:06:36.215Z,11.27
2019-02-05T09:09:07.485Z,11.17
2019-02-05T09:11:37.160Z,11.03
2019-02-05T09:14:11.855Z,10.00
2019-02-05T09:16:37.962Z,10.70
2019-02-05T09:19:07.569Z,9.60
2019-02-05T09:21:37.231Z,10.53
2019-02-05T09:24:06.934Z,11.60
2019-02-05T09:26:36.613Z,10.03
2019-02-05T09:29:06.508Z,10.13
2019-02-05T09:31:36.119Z,10.17
2019-02-05T09:34:05.711Z,12.03
2019-02-05T09:36:35.361Z,8.73
2019-02-05T09:39:06.924Z,12.00
2019-02-05T09:41:36.838Z,13.30
2019-02-05T09:44:06.491Z,9.97
2019-02-05T09:46:36.090Z,22.57
2019-02-05T09:49:06.010Z,8.50
2019-02-05T09:51:35.669Z,8.73
2019-02-05T09:54:05.773Z,9.67
2019-02-05T09:56:35.383Z,10.33
2019-02-05T09:59:05.167Z,9.60
2019-02-05T10:01:34.898Z,9.30
2019-02-05T10:04:05.172Z,10.93
2019-02-05T10:06:34.849Z,13.73
2019-02-05T10:09:07.254Z,10.73
2019-02-05T10:11:36.879Z,8.63
2019-02-05T10:14:06.509Z,10.97
2019-02-05T10:16:36.178Z,9.63
2019-02-05T10:19:05.754Z,10.17
2019-02-05T10:21:35.424Z,11.13
2019-02-05T10:24:05.329Z,11.07
2019-02-05T10:26:35.948Z,9.23
2019-02-05T10:29:05.616Z,11.67
2019-02-05T10:31:35.208Z,10.83
2019-02-05T10:34:05.550Z,11.30
2019-02-05T10:36:35.185Z,12.20
2019-02-05T10:39:07.581Z,13.27
2019-02-05T10:41:37.270Z,12.73
2019-02-05T10:44:07.032Z,9.57
2019-02-05T10:46:36.749Z,10.13
2019-02-05T10:49:06.427Z,11.53
2019-02-05T10:51:36.391Z,11.10
2019-02-05T10:54:06.094Z,9.47
2019-02-05T10:56:35.672Z,9.97
2019-02-05T10:59:05.299Z,7.83
2019-02-05T11:01:35.069Z,10.07
2019-02-05T11:04:04.804Z,10.70
2019-02-05T11:06:34.805Z,10.33
2019-02-05T11:09:07.290Z,10.13
2019-02-05T11:11:36.881Z,10.20
2019-02-05T11:14:06.496Z,10.53
2019-02-05T11:16:36.101Z,9.43
2019-02-05T11:19:05.842Z,10.80
2019-02-05T11:21:35.704Z,11.53
2019-02-05T11:24:05.762Z,11.53
2019-02-05T11:26:36.828Z,11.23
2019-02-05T11:29:06.478Z,9.43
2019-02-05T11:31:37.136Z,10.63
2019-02-05T11:34:06.873Z,7.47
2019-02-05T11:36:36.525Z,9.03
2019-02-05T11:39:09.311Z,6.50
2019-02-05T11:41:38.987Z,8.20
2019-02-05T11:44:08.593Z,7.77
2019-02-05T11:46:38.252Z,6.87
2019-02-05T11:49:07.867Z,6.77
2019-02-05T11:51:37.473Z,7.33
2019-02-05T11:54:07.129Z,7.47
2019-02-05T11:56:36.825Z,5.80
2019-02-05T11:59:06.413Z,5.93
2019-02-05T12:01:38.926Z,5.83
2019-02-05T12:04:07.378Z,4.57
2019-02-05T12:06:37.060Z,4.63
2019-02-05T12:09:09.913Z,3.77
2019-02-05T12:11:39.585Z,3.87
2019-02-05T12:14:09.202Z,3.37
2019-02-05T12:16:38.804Z,3.90
2019-02-05T12:19:08.412Z,3.90
2019-02-05T12:21:38.144Z,3.60
2019-02-05T12:24:07.798Z,3.27
2019-02-05T12:26:37.443Z,3.37
2019-02-05T12:29:07.148Z,3.27
2019-02-05T12:31:36.864Z,4.67
2019-02-05T12:34:06.460Z,2.83
2019-02-05T12:36:36.135Z,2.83
2019-02-05T12:39:08.649Z,3.27
2019-02-05T12:41:38.279Z,2.37
2019-02-05T12:44:08.794Z,2.53
2019-02-05T12:46:38.466Z,2.53
2019-02-05T12:49:08.113Z,3.00
2019-02-05T12:51:37.769Z,2.67
2019-02-05T12:54:07.336Z,2.00
2019-02-05T12:56:37.064Z,1.90
2019-02-05T12:59:06.645Z,2.87
2019-02-05T13:01:36.306Z,1.70
2019-02-05T13:04:06.163Z,1.23
2019-02-05T13:06:35.830Z,1.50
2019-02-05T13:09:08.014Z,1.97
2019-02-05T13:11:38.805Z,1.40
2019-02-05T13:14:08.392Z,1.57
2019-02-05T13:16:38.010Z,2.40
2019-02-05T13:19:07.691Z,2.03
2019-02-05T13:21:37.274Z,1.80
2019-02-05T13:24:07.192Z,1.47
2019-02-05T13:26:36.764Z,1.23
2019-02-05T13:29:06.542Z,1.17
2019-02-05T13:31:37.113Z,3.47
2019-02-05T13:34:06.909Z,1.47
2019-02-05T13:36:36.500Z,2.37
2019-02-05T13:39:09.288Z,1.50
2019-02-05T13:41:38.972Z,1.40
2019-02-05T13:44:08.547Z,1.17
2019-02-05T13:46:38.242Z,1.20
2019-02-05T13:49:07.826Z,1.20
2019-02-05T13:51:37.921Z,3.30
2019-02-05T13:54:07.524Z,1.20
2019-02-05T13:56:37.091Z,1.00
2019-02-05T13:59:07.292Z,1.70
2019-02-05T14:01:36.881Z,1.77
2019-02-05T14:04:06.508Z,1.43
2019-02-05T14:06:36.401Z,0.97
2019-02-05T14:09:10.503Z,1.03
2019-02-05T14:11:40.136Z,0.93
2019-02-05T14:14:09.785Z,0.83
2019-02-05T14:16:39.619Z,0.80
2019-02-05T14:19:09.290Z,1.33
2019-02-05T14:21:38.951Z,1.00
2019-02-05T14:24:09.041Z,0.50
2019-02-05T14:26:38.801Z,0.90
2019-02-05T14:29:08.539Z,0.67
2019-02-05T14:31:38.191Z,0.27
2019-02-05T14:34:07.784Z,0.50
2019-02-05T14:36:37.372Z,0.50
2019-02-05T14:39:09.073Z,0.63
2019-02-05T14:41:38.715Z,0.63
2019-02-05T14:44:08.295Z,1.10
2019-02-05T14:46:37.979Z,0.80
2019-02-05T14:49:07.964Z,0.70
2019-02-05T14:51:37.672Z,0.90
2019-02-05T14:54:07.323Z,2.00
2019-02-05T14:56:37.052Z,1.87
2019-02-05T14:59:06.751Z,2.13
2019-02-05T15:01:43.297Z,1.67
2019-02-05T15:04:07.629Z,2.37
2019-02-05T15:06:37.343Z,2.17
2019-02-05T15:09:07.869Z,2.83
2019-02-05T15:11:37.497Z,2.83
2019-02-05T15:14:07.137Z,3.27
2019-02-05T15:16:36.792Z,3.23
2019-02-05T15:19:06.505Z,4.87
2019-02-05T15:21:36.083Z,4.63
2019-02-05T15:24:05.840Z,3.67
2019-02-05T15:26:35.489Z,4.23
2019-02-05T15:29:05.088Z,4.17
2019-02-05T15:31:35.054Z,5.93
2019-02-05T15:34:05.182Z,5.53
2019-02-05T15:36:34.946Z,3.57
2019-02-05T15:39:07.534Z,4.00
2019-02-05T15:41:37.235Z,4.67
2019-02-05T15:44:06.838Z,4.07
2019-02-05T15:46:36.478Z,2.90
2019-02-05T15:49:06.067Z,3.03
2019-02-05T15:51:35.649Z,2.63
2019-02-05T15:54:05.379Z,4.20
2019-02-05T15:56:35.048Z,4.87
2019-02-05T15:59:04.814Z,3.67
2019-02-05T16:01:34.534Z,5.63
2019-02-05T16:04:04.339Z,5.20
2019-02-05T16:06:34.044Z,3.90
2019-02-05T16:09:06.726Z,5.27
2019-02-05T16:11:37.291Z,5.37
2019-02-05T16:14:07.434Z,5.23
2019-02-05T16:16:36.995Z,4.30
2019-02-05T16:19:06.592Z,7.87
2019-02-05T16:21:36.197Z,5.13
2019-02-05T16:24:05.970Z,6.27
2019-02-05T16:26:35.592Z,4.23
2019-02-05T16:29:05.904Z,6.17
2019-02-05T16:31:35.570Z,5.27
2019-02-05T16:34:06.903Z,5.10
2019-02-05T16:36:36.471Z,5.23
2019-02-05T16:39:09.261Z,6.10
2019-02-05T16:41:38.863Z,5.10
2019-02-05T16:44:08.430Z,4.83
2019-02-05T16:46:38.151Z,4.43
2019-02-05T16:49:07.776Z,4.27
2019-02-05T16:51:37.498Z,6.00
2019-02-05T16:54:07.175Z,4.67
2019-02-05T16:56:36.820Z,4.50
2019-02-05T16:59:06.417Z,3.73
2019-02-05T17:01:37.122Z,3.63
2019-02-05T17:04:06.811Z,3.60
2019-02-05T17:06:36.446Z,4.50
2019-02-05T17:09:09.074Z,4.43
2019-02-05T17:11:39.029Z,3.87
2019-02-05T17:14:08.635Z,4.70
2019-02-05T17:16:38.290Z,3.97
2019-02-05T17:19:07.940Z,4.93
2019-02-05T17:21:37.549Z,4.87
2019-02-05T17:24:07.234Z,4.60
2019-02-05T17:26:37.152Z,5.70
2019-02-05T17:29:06.822Z,5.37
2019-02-05T17:31:36.405Z,4.93
2019-02-05T17:34:06.140Z,6.17
2019-02-05T17:36:35.709Z,5.97
2019-02-05T17:39:07.999Z,6.43
2019-02-05T17:41:37.647Z,5.37
2019-02-05T17:44:07.287Z,5.77
2019-02-05T17:46:36.883Z,5.50
2019-02-05T17:49:06.447Z,6.03
2019-02-05T17:51:36.103Z,6.50
2019-02-05T17:54:05.698Z,6.97
2019-02-05T17:56:35.354Z,6.13
2019-02-05T17:59:06.237Z,5.50
2019-02-05T18:01:35.914Z,6.33
2019-02-05T18:04:05.507Z,8.00
2019-02-05T18:06:36.238Z,6.70
2019-02-05T18:09:07.816Z,6.37
2019-02-05T18:11:37.408Z,6.13
2019-02-05T18:14:07.074Z,5.77
2019-02-05T18:16:36.734Z,5.33
2019-02-05T18:19:06.377Z,6.23
2019-02-05T18:21:35.978Z,5.83
2019-02-05T18:24:05.741Z,8.87
2019-02-05T18:26:35.400Z,7.17
2019-02-05T18:29:05.233Z,7.37
2019-02-05T18:31:34.920Z,8.70
2019-02-05T18:34:04.815Z,6.97
2019-02-05T18:36:34.430Z,6.80
2019-02-05T18:39:05.517Z,6.33
2019-02-05T18:41:35.133Z,6.80
2019-02-05T18:44:04.953Z,7.90
2019-02-05T18:46:34.653Z,6.67
2019-02-05T18:49:05.669Z,6.87
2019-02-05T18:51:35.706Z,6.37
2019-02-05T18:54:05.391Z,6.67
2019-02-05T18:56:35.174Z,6.87
2019-02-05T18:59:04.872Z,7.60
2019-02-05T19:01:34.667Z,4.50
2019-02-05T19:04:04.416Z,4.63
2019-02-05T19:06:35.417Z,5.80
2019-02-05T19:09:08.044Z,5.27
2019-02-05T19:11:37.836Z,5.10
2019-02-05T19:14:07.404Z,4.70
2019-02-05T19:16:36.988Z,6.13
2019-02-05T19:19:14.687Z,6.57
2019-02-05T19:21:37.866Z,6.30
2019-02-05T19:24:09.163Z,5.03
2019-02-05T19:26:40.382Z,6.13
2019-02-05T19:29:18.522Z,6.57
2019-02-05T19:31:41.390Z,6.10
2019-02-05T19:34:11.163Z,6.87
2019-02-05T19:36:40.830Z,7.43
2019-02-05T19:39:10.435Z,6.17
2019-02-05T19:41:40.021Z,6.30
2019-02-05T19:44:09.677Z,6.63
2019-02-05T19:46:50.148Z,4.47
2019-02-05T19:49:22.242Z,5.83
2019-02-05T19:51:51.939Z,5.23
2019-02-05T19:54:21.985Z,6.93
2019-02-05T19:56:51.645Z,5.37
2019-02-05T19:59:22.743Z,6.50
2019-02-05T20:01:52.397Z,5.17
2019-02-05T20:04:22.045Z,4.53
2019-02-05T20:06:51.771Z,4.60
2019-02-05T20:09:21.506Z,4.67
2019-02-05T20:11:51.213Z,6.33
2019-02-05T20:14:20.844Z,6.50
2019-02-05T20:16:50.521Z,6.13
2019-02-05T20:19:20.187Z,5.07
2019-02-05T20:21:49.779Z,6.40
2019-02-05T20:24:22.918Z,6.10
2019-02-05T20:26:52.552Z,5.60
2019-02-05T20:29:25.210Z,5.53
2019-02-05T20:31:54.861Z,5.63
2019-02-05T20:34:24.653Z,5.00
2019-02-05T20:36:54.389Z,4.73
2019-02-05T20:39:24.059Z,5.37
2019-02-05T20:41:53.709Z,4.50
2019-02-05T20:44:23.282Z,4.73
2019-02-05T20:46:52.937Z,3.83
2019-02-05T20:49:22.547Z,4.13
2019-02-05T20:51:53.807Z,3.30
2019-02-05T20:54:23.390Z,3.77
2019-02-05T20:56:53.003Z,4.60
2019-02-05T20:59:22.625Z,3.97
2019-02-05T21:01:56.027Z,3.13
2019-02-05T21:04:24.367Z,3.97
2019-02-05T21:06:54.111Z,3.57
2019-02-05T21:09:23.731Z,4.40
2019-02-05T21:11:53.361Z,4.93
2019-02-05T21:14:23.014Z,4.67
2019-02-05T21:16:52.614Z,3.47
2019-02-05T21:19:22.374Z,5.43
2019-02-05T21:21:52.516Z,4.00
2019-02-05T21:24:22.119Z,4.07
2019-02-05T21:26:51.767Z,4.07
2019-02-05T21:29:21.422Z,4.17
2019-02-05T21:31:51.032Z,4.93
2019-02-05T21:34:20.827Z,4.60
2019-02-05T21:36:50.802Z,4.13
2019-02-05T21:39:20.515Z,5.03
2019-02-05T21:41:50.134Z,4.80
2019-02-05T21:44:19.978Z,4.20
2019-02-05T21:46:49.658Z,4.23
2019-02-05T21:49:19.288Z,4.53
2019-02-05T21:51:49.229Z,4.20
2019-02-05T21:54:18.824Z,4.13
2019-02-05T21:56:48.556Z,5.30
2019-02-05T21:59:18.321Z,4.30
2019-02-05T22:01:47.913Z,4.70
2019-02-05T22:04:26.768Z,4.50
2019-02-05T22:06:48.918Z,4.47
2019-02-05T22:09:18.555Z,5.60
2019-02-05T22:11:48.119Z,3.23
2019-02-05T22:14:17.747Z,4.20
2019-02-05T22:16:47.448Z,4.90
2019-02-05T22:19:17.740Z,5.60
2019-02-05T22:21:48.817Z,4.63
2019-02-05T22:24:18.428Z,6.23
2019-02-05T22:26:48.079Z,4.97
2019-02-05T22:29:17.812Z,5.07
2019-02-05T22:31:47.404Z,4.57
2019-02-05T22:34:17.392Z,4.43
2019-02-05T22:36:47.114Z,5.63
2019-02-05T22:39:16.787Z,4.83
2019-02-05T22:41:46.397Z,5.33
2019-02-05T22:44:17.120Z,5.20
2019-02-05T22:46:47.017Z,4.93
2019-02-05T22:49:16.656Z,5.63
2019-02-05T22:51:46.666Z,4.13
2019-02-05T22:54:16.284Z,4.80
2019-02-05T22:56:46.207Z,4.33
2019-02-05T22:59:16.546Z,5.27
2019-02-05T23:01:46.574Z,6.27
2019-02-05T23:04:19.099Z,4.97
2019-02-05T23:06:54.281Z,4.43
2019-02-05T23:09:29.761Z,3.50
2019-02-05T23:12:14.693Z,5.50
2019-02-05T23:14:47.772Z,3.40
2019-02-05T23:17:17.420Z,5.33
2019-02-05T23:19:47.016Z,4.23
2019-02-05T23:22:16.640Z,3.43
2019-02-05T23:24:46.303Z,4.30
2019-02-05T23:27:15.879Z,3.77
2019-02-05T23:29:45.792Z,3.63
2019-02-05T23:32:15.437Z,4.07
2019-02-05T23:34:46.169Z,3.30
2019-02-05T23:37:15.824Z,2.83
2019-02-05T23:39:45.550Z,4.30
2019-02-05T23:42:15.334Z,4.20
2019-02-05T23:44:44.993Z,5.20
2019-02-05T23:47:14.589Z,4.07
2019-02-05T23:49:44.243Z,3.17
2019-02-05T23:52:13.830Z,3.77
2019-02-05T23:54:43.536Z,4.93
2019-02-05T23:57:13.130Z,4.27
2019-02-05T23:59:42.795Z,4.40
